Time;durP1;ratioP1;P1;durP2;ratioP2;P2;SDS_P1;SDS_P2;PMS_P1;PMS_P2;Temp;Humidity;BMP_temperature;BMP_pressure;BME280_temperature;BME280_humidity;BME280_pressure;Samples;Min_cycle;Max_cycle;Signal;HPM_P1;HPM_P2
2021/03/15 00:02:06;;;;;;;7.70;2.80;;;5.20;99.90;;;;;;5014049;28;20546;-78
2021/03/15 00:04:31;;;;;;;11.02;3.15;;;5.20;99.90;;;;;;5010077;28;20037;-77
2021/03/15 00:06:57;;;;;;;12.18;3.13;;;5.30;99.90;;;;;;5024910;28;20061;-77
2021/03/15 00:09:26;;;;;;;11.27;2.97;;;5.30;99.90;;;;;;5008963;28;20075;-78
2021/03/15 00:11:53;;;;;;;11.13;3.25;;;;;;;;;;5014935;28;20041;-79
2021/03/15 00:14:19;;;;;;;12.32;3.17;;;;;;;;;;5017226;28;20046;-75
2021/03/15 00:16:45;;;;;;;9.88;2.95;;;5.30;99.90;;;;;;5012963;28;20025;-77
2021/03/15 00:19:11;;;;;;;8.93;3.63;;;5.30;99.90;;;;;;5012008;28;20041;-78
2021/03/15 00:21:36;;;;;;;12.05;3.53;;;5.30;99.90;;;;;;5012684;28;20049;-78
2021/03/15 00:24:02;;;;;;;12.18;3.72;;;5.30;99.90;;;;;;4999979;28;20495;-76
2021/03/15 00:26:27;;;;;;;16.23;3.50;;;5.30;99.90;;;;;;5020122;28;20045;-76
2021/03/15 00:28:53;;;;;;;12.65;3.50;;;5.30;99.90;;;;;;5022404;28;20050;-76
2021/03/15 00:31:19;;;;;;;7.10;2.72;;;5.20;99.90;;;;;;5024222;28;20495;-77
2021/03/15 00:33:44;;;;;;;10.07;3.60;;;5.30;99.90;;;;;;5017951;28;20042;-75
2021/03/15 00:36:10;;;;;;;11.82;3.90;;;5.20;99.90;;;;;;5016839;28;20057;-76
2021/03/15 00:38:35;;;;;;;14.35;3.83;;;5.30;99.90;;;;;;4995898;28;20053;-76
2021/03/15 00:41:02;;;;;;;12.15;3.67;;;;;;;;;;5001864;28;20048;-77
2021/03/15 00:43:28;;;;;;;7.72;3.03;;;5.30;99.90;;;;;;5015204;28;20045;-78
2021/03/15 00:45:53;;;;;;;12.30;3.72;;;6.00;99.90;;;;;;5013408;28;20041;-77
2021/03/15 00:48:19;;;;;;;13.90;3.40;;;5.40;99.90;;;;;;5015433;28;20140;-76
2021/03/15 00:50:45;;;;;;;8.57;3.33;;;;;;;;;;5015392;28;20050;-79
2021/03/15 00:53:11;;;;;;;10.23;3.13;;;5.40;99.90;;;;;;5016270;28;20514;-75
2021/03/15 00:55:37;;;;;;;10.80;3.17;;;5.40;99.90;;;;;;5019220;28;20049;-77
2021/03/15 00:58:03;;;;;;;11.38;3.20;;;5.50;99.90;;;;;;5019236;28;20041;-77
2021/03/15 01:00:32;;;;;;;9.75;3.08;;;5.50;99.90;;;;;;5002771;28;20109;-78
2021/03/15 01:02:58;;;;;;;10.57;3.03;;;;;;;;;;5021557;28;20115;-77
2021/03/15 01:05:41;;;;;;;10.52;2.97;;;5.60;99.90;;;;;;5019507;28;20033;-76
2021/03/15 01:08:08;;;;;;;8.25;2.70;;;5.50;99.90;;;;;;5026157;28;20025;-78
2021/03/15 01:10:35;;;;;;;9.88;2.80;;;5.50;99.90;;;;;;5020326;28;20045;-77
2021/03/15 01:13:02;;;;;;;10.90;2.80;;;5.60;99.90;;;;;;5020954;28;20154;-77
2021/03/15 01:15:28;;;;;;;11.15;2.70;;;;;;;;;;5017155;28;20779;-77
2021/03/15 01:17:54;;;;;;;8.30;2.60;;;5.50;99.90;;;;;;5026586;28;20128;-77
2021/03/15 01:20:19;;;;;;;12.10;2.88;;;5.50;99.90;;;;;;5018281;28;20167;-77
2021/03/15 01:22:45;;;;;;;14.65;2.70;;;5.60;99.90;;;;;;5024854;28;20041;-76
2021/03/15 01:25:11;;;;;;;10.88;2.50;;;5.50;99.90;;;;;;5021604;28;20096;-76
2021/03/15 01:27:38;;;;;;;11.70;2.63;;;5.50;99.90;;;;;;5018909;28;20197;-76
2021/03/15 01:30:13;;;;;;;11.18;2.85;;;5.50;99.90;;;;;;5041612;28;20045;-76
2021/03/15 01:32:40;;;;;;;9.65;2.47;;;5.60;99.90;;;;;;5015952;28;20058;-76
2021/03/15 01:35:07;;;;;;;12.73;2.33;;;5.60;99.90;;;;;;5013354;28;20057;-76
2021/03/15 01:37:33;;;;;;;9.48;2.85;;;5.60;99.90;;;;;;5019693;28;20121;-77
2021/03/15 01:39:59;;;;;;;13.50;3.08;;;5.60;99.90;;;;;;5002319;28;20052;-75
2021/03/15 01:42:25;;;;;;;10.68;2.50;;;5.60;99.90;;;;;;5020245;28;20041;-76
2021/03/15 01:44:51;;;;;;;9.80;2.60;;;5.60;99.90;;;;;;5027605;28;20029;-76
2021/03/15 01:47:18;;;;;;;14.68;3.13;;;5.60;99.90;;;;;;5007858;28;20428;-76
2021/03/15 01:49:43;;;;;;;9.90;3.15;;;5.60;99.90;;;;;;5017107;28;20056;-76
2021/03/15 01:52:10;;;;;;;10.27;2.28;;;5.60;99.90;;;;;;5021475;28;20034;-76
2021/03/15 01:54:36;;;;;;;9.88;2.53;;;5.60;99.90;;;;;;5036316;28;20037;-77
2021/03/15 01:57:02;;;;;;;8.98;2.10;;;;;;;;;;5019585;28;20111;-78
2021/03/15 01:59:27;;;;;;;13.77;3.03;;;5.60;99.90;;;;;;5018540;28;20127;-76
2021/03/15 02:01:53;;;;;;;12.70;2.50;;;5.60;99.90;;;;;;5022670;28;20132;-76
2021/03/15 02:04:22;;;;;;;7.72;2.70;;;5.60;99.90;;;;;;5019271;28;20037;-75
2021/03/15 02:06:49;;;;;;;12.73;2.80;;;7.60;99.90;;;;;;5018647;28;20068;-77
2021/03/15 02:09:14;;;;;;;11.15;3.15;;;5.60;99.90;;;;;;5016924;28;20033;-77
2021/03/15 02:12:11;;;;;;;13.98;2.65;;;5.60;99.90;;;;;;5017189;28;20048;-75
2021/03/15 02:15:05;;;;;;;12.45;2.60;;;5.70;99.90;;;;;;5021189;28;20074;-78
2021/03/15 02:17:37;;;;;;;5.43;2.08;;;5.70;99.90;;;;;;5022758;28;20037;-78
2021/03/15 02:20:40;;;;;;;12.98;2.47;;;5.70;99.90;;;;;;5039260;28;20116;-76
2021/03/15 02:23:31;;;;;;;13.65;2.60;;;5.70;99.90;;;;;;5022154;28;20044;-77
2021/03/15 02:26:47;;;;;;;7.90;2.45;;;5.70;99.90;;;;;;5021013;28;20064;-76
2021/03/15 02:29:50;;;;;;;14.07;3.15;;;5.70;99.90;;;;;;5009779;28;20053;-76
2021/03/15 02:32:40;;;;;;;12.02;2.70;;;5.70;99.90;;;;;;5017785;28;20045;-76
2021/03/15 02:35:10;;;;;;;12.85;3.20;;;5.70;99.90;;;;;;5020936;28;20041;-75
2021/03/15 02:37:44;;;;;;;9.77;2.80;;;5.70;99.90;;;;;;5018029;28;20120;-75
2021/03/15 02:40:17;;;;;;;15.10;3.50;;;5.70;99.90;;;;;;5014081;28;20075;-75
2021/03/15 02:42:47;;;;;;;13.15;3.47;;;5.70;99.90;;;;;;5019696;28;20040;-76
2021/03/15 02:45:14;;;;;;;14.07;3.88;;;5.80;99.90;;;;;;5019300;28;20115;-75
2021/03/15 02:47:42;;;;;;;12.13;3.20;;;5.70;99.90;;;;;;5017408;28;20066;-79
2021/03/15 02:50:10;;;;;;;14.43;3.60;;;5.80;99.90;;;;;;5016615;28;20033;-76
2021/03/15 02:52:45;;;;;;;14.25;4.10;;;5.80;99.90;;;;;;5020256;28;20028;-75
2021/03/15 02:55:15;;;;;;;10.00;4.47;;;5.70;99.90;;;;;;5038348;28;20041;-75
2021/03/15 02:57:43;;;;;;;13.77;4.20;;;5.80;99.90;;;;;;5033537;28;20056;-75
2021/03/15 03:00:09;;;;;;;12.98;3.92;;;5.80;99.90;;;;;;5004634;28;20132;-76
2021/03/15 03:02:36;;;;;;;14.35;4.65;;;5.80;99.90;;;;;;5011862;28;20099;-75
2021/03/15 03:05:07;;;;;;;10.38;3.80;;;5.60;99.90;;;;;;5016263;28;20641;-75
2021/03/15 03:07:37;;;;;;;13.10;3.90;;;5.60;99.90;;;;;;5018127;28;20108;-75
2021/03/15 03:10:05;;;;;;;9.77;3.75;;;5.60;99.90;;;;;;5020481;28;20040;-76
2021/03/15 03:12:32;;;;;;;12.05;4.38;;;5.60;99.90;;;;;;5025404;28;20037;-76
2021/03/15 03:14:59;;;;;;;8.80;2.97;;;5.50;99.90;;;;;;5016940;28;20034;-76
2021/03/15 03:17:29;;;;;;;7.95;3.40;;;5.60;99.90;;;;;;5024037;28;20041;-77
2021/03/15 03:19:56;;;;;;;8.70;3.78;;;5.60;99.90;;;;;;5033397;28;20041;-76
2021/03/15 03:22:23;;;;;;;8.57;3.55;;;5.60;99.90;;;;;;5021388;28;20080;-75
2021/03/15 03:24:49;;;;;;;8.50;3.45;;;5.50;99.90;;;;;;5019732;28;21799;-76
2021/03/15 03:27:16;;;;;;;9.10;3.60;;;5.40;99.90;;;;;;5014858;28;20055;-77
2021/03/15 03:29:43;;;;;;;9.00;3.78;;;5.50;99.90;;;;;;5032628;28;20784;-78
2021/03/15 03:32:10;;;;;;;7.65;3.75;;;5.50;99.90;;;;;;5035503;28;20052;-76
2021/03/15 03:34:36;;;;;;;7.63;3.88;;;;;;;;;;5006634;28;20041;-75
2021/03/15 03:37:01;;;;;;;10.20;3.33;;;5.40;99.90;;;;;;5013122;28;20021;-76
2021/03/15 03:39:27;;;;;;;8.18;3.58;;;5.50;99.90;;;;;;5005878;28;20041;-75
2021/03/15 03:41:55;;;;;;;7.53;3.22;;;8.50;99.90;;;;;;5016021;28;20034;-75
2021/03/15 03:44:21;;;;;;;8.73;3.38;;;5.50;99.90;;;;;;5015538;28;20793;-76
2021/03/15 03:46:49;;;;;;;7.63;2.42;;;5.50;99.90;;;;;;5017047;28;20076;-78
2021/03/15 03:49:15;;;;;;;7.60;3.13;;;5.50;99.90;;;;;;5014133;28;20072;-76
2021/03/15 03:51:53;;;;;;;6.53;2.95;;;5.50;99.90;;;;;;5018000;28;20230;-78
2021/03/15 03:54:26;;;;;;;4.82;3.00;;;5.40;99.90;;;;;;5021080;28;20083;-77
2021/03/15 03:57:19;;;;;;;9.40;3.20;;;5.40;99.90;;;;;;5029115;28;22323;-77
2021/03/15 03:59:48;;;;;;;7.15;2.72;;;5.40;99.90;;;;;;5015222;28;20334;-79
2021/03/15 04:02:15;;;;;;;4.53;2.42;;;5.40;99.90;;;;;;5017008;28;20061;-77
2021/03/15 04:04:45;;;;;;;7.13;3.20;;;5.30;99.90;;;;;;5022739;28;20140;-76
2021/03/15 04:07:12;;;;;;;4.72;2.47;;;5.30;99.90;;;;;;5025291;28;20057;-79
2021/03/15 04:09:41;;;;;;;8.43;2.97;;;5.30;99.90;;;;;;5025175;28;20045;-78
2021/03/15 04:12:20;;;;;;;5.45;2.63;;;5.30;99.90;;;;;;5024819;28;20083;-79
2021/03/15 04:14:50;;;;;;;8.30;2.80;;;5.30;99.90;;;;;;5018799;28;20093;-78
2021/03/15 04:17:22;;;;;;;4.78;2.40;;;5.30;99.90;;;;;;5017179;28;20056;-78
2021/03/15 04:19:56;;;;;;;3.53;2.20;;;5.30;99.90;;;;;;5021794;28;20085;-77
2021/03/15 04:22:24;;;;;;;6.10;2.38;;;5.20;99.90;;;;;;5020285;28;20076;-78
2021/03/15 04:24:51;;;;;;;5.90;2.17;;;5.20;99.90;;;;;;5018988;28;20045;-78
2021/03/15 04:27:18;;;;;;;4.13;2.22;;;5.40;99.90;;;;;;5021868;28;20049;-76
2021/03/15 04:29:46;;;;;;;4.85;2.05;;;5.30;99.90;;;;;;4990524;28;20049;-77
2021/03/15 04:32:12;;;;;;;4.60;2.10;;;5.30;99.90;;;;;;5015969;28;20018;-77
2021/03/15 04:34:38;;;;;;;3.97;1.80;;;5.30;99.90;;;;;;5017229;28;20045;-75
2021/03/15 04:37:06;;;;;;;3.28;1.75;;;5.30;99.90;;;;;;5020671;28;20052;-76
2021/03/15 04:39:34;;;;;;;4.93;1.80;;;5.30;99.90;;;;;;5020818;28;20092;-77
2021/03/15 04:42:01;;;;;;;4.70;1.90;;;5.30;99.90;;;;;;5029736;28;20490;-76
2021/03/15 04:44:27;;;;;;;2.95;1.80;;;5.30;99.90;;;;;;5030611;28;20053;-78
2021/03/15 04:46:54;;;;;;;3.63;1.80;;;5.20;99.90;;;;;;5020457;28;20029;-75
2021/03/15 04:49:21;;;;;;;5.03;2.10;;;5.30;99.90;;;;;;5020348;28;20041;-76
2021/03/15 04:51:47;;;;;;;3.97;1.80;;;5.20;99.90;;;;;;5021016;28;20033;-77
2021/03/15 04:54:13;;;;;;;4.78;1.90;;;5.30;99.90;;;;;;5019741;28;20509;-77
2021/03/15 04:56:40;;;;;;;4.55;2.05;;;5.20;99.90;;;;;;5016811;28;20034;-76
2021/03/15 04:59:09;;;;;;;5.38;2.10;;;5.10;99.90;;;;;;5017454;28;20130;-77
2021/03/15 05:01:39;;;;;;;5.28;2.05;;;5.10;99.90;;;;;;5025953;28;20185;-78
2021/03/15 05:04:10;;;;;;;3.28;2.08;;;5.00;99.90;;;;;;5018555;28;20045;-78
2021/03/15 05:06:38;;;;;;;4.72;1.90;;;5.00;99.90;;;;;;5022291;28;20105;-76
2021/03/15 05:09:07;;;;;;;3.67;2.25;;;5.00;99.90;;;;;;5017201;28;20112;-78
2021/03/15 05:11:35;;;;;;;4.10;2.17;;;5.10;99.90;;;;;;5019982;28;20240;-76
2021/03/15 05:14:02;;;;;;;4.63;2.30;;;5.40;99.90;;;;;;5016263;28;20037;-77
2021/03/15 05:16:28;;;;;;;3.10;2.00;;;5.10;99.90;;;;;;5021327;28;20079;-78
2021/03/15 05:18:55;;;;;;;5.90;2.40;;;5.10;99.90;;;;;;5016994;28;20037;-76
2021/03/15 05:21:23;;;;;;;4.35;2.20;;;5.10;99.90;;;;;;5025241;28;20037;-76
2021/03/15 05:23:52;;;;;;;4.18;2.38;;;5.20;99.90;;;;;;5021630;28;20037;-76
2021/03/15 05:26:19;;;;;;;4.40;2.00;;;5.10;99.90;;;;;;5018434;28;20041;-78
2021/03/15 05:28:47;;;;;;;5.90;2.33;;;5.20;99.90;;;;;;5017915;28;20397;-76
2021/03/15 05:31:14;;;;;;;5.00;2.42;;;5.10;99.90;;;;;;5024043;28;20037;-76
2021/03/15 05:33:41;;;;;;;3.50;2.15;;;5.20;99.90;;;;;;5008660;28;20042;-76
2021/03/15 05:36:08;;;;;;;7.30;2.25;;;5.20;99.90;;;;;;5020819;28;20022;-77
2021/03/15 05:38:35;;;;;;;3.83;2.10;;;5.20;99.90;;;;;;5037348;28;20502;-78
2021/03/15 05:41:03;;;;;;;5.47;2.28;;;5.40;99.90;;;;;;5023393;28;20021;-77
2021/03/15 05:43:34;;;;;;;3.55;2.38;;;5.30;99.90;;;;;;5022519;28;20032;-78
2021/03/15 05:46:22;;;;;;;4.05;2.63;;;5.30;99.90;;;;;;5028306;28;20072;-77
2021/03/15 05:49:30;;;;;;;5.18;2.47;;;5.30;99.90;;;;;;5019029;28;20532;-77
2021/03/15 05:52:09;;;;;;;4.57;2.22;;;5.30;99.90;;;;;;5026356;28;20028;-77
2021/03/15 05:54:37;;;;;;;6.68;2.50;;;5.30;99.90;;;;;;5029627;28;20022;-76
2021/03/15 05:57:36;;;;;;;4.90;2.42;;;5.40;99.90;;;;;;5023287;28;20021;-78
2021/03/15 06:00:39;;;;;;;3.58;2.40;;;5.40;99.90;;;;;;5033092;28;20038;-77
2021/03/15 06:03:37;;;;;;;7.50;2.60;;;5.50;99.90;;;;;;5032206;28;20042;-77
2021/03/15 06:06:05;;;;;;;5.82;2.65;;;5.50;99.90;;;;;;5039468;28;20099;-76
2021/03/15 06:08:38;;;;;;;6.00;2.75;;;5.50;99.90;;;;;;5023642;28;20053;-77
2021/03/15 06:11:12;;;;;;;3.95;2.63;;;5.50;99.90;;;;;;5021374;28;20503;-77
2021/03/15 06:13:39;;;;;;;5.93;2.72;;;5.50;99.90;;;;;;5035824;28;20124;-77
2021/03/15 06:16:07;;;;;;;3.83;2.40;;;5.50;99.90;;;;;;5017126;28;20153;-76
2021/03/15 06:18:33;;;;;;;4.35;2.17;;;5.50;99.90;;;;;;5016829;28;20128;-77
2021/03/15 06:21:00;;;;;;;3.70;2.17;;;5.60;99.90;;;;;;5018006;28;20610;-76
2021/03/15 06:23:27;;;;;;;3.88;2.17;;;5.70;99.90;;;;;;5023290;28;20068;-77
2021/03/15 06:25:54;;;;;;;4.05;2.00;;;5.80;99.90;;;;;;5023897;28;20041;-80
2021/03/15 06:28:21;;;;;;;3.20;2.20;;;6.30;99.90;;;;;;5028035;28;20033;-76
2021/03/15 06:30:49;;;;;;;3.95;2.08;;;5.80;99.90;;;;;;5022721;28;20042;-76
2021/03/15 06:33:19;;;;;;;5.28;3.22;;;5.80;99.90;;;;;;5020639;28;20049;-78
2021/03/15 06:35:47;;;;;;;6.28;2.35;;;5.70;99.90;;;;;;5022002;28;20021;-77
2021/03/15 06:38:16;;;;;;;4.45;2.17;;;5.80;99.90;;;;;;5022660;28;20051;-79
2021/03/15 06:40:43;;;;;;;4.03;2.28;;;5.80;99.90;;;;;;5019800;28;20045;-77
2021/03/15 06:43:14;;;;;;;4.47;2.30;;;5.80;99.90;;;;;;5019500;28;20057;-79
2021/03/15 06:45:39;;;;;;;;;;;5.80;99.90;;;;;;5020671;28;20040;-75
2021/03/15 06:48:06;;;;;;;5.20;2.15;;;5.80;99.90;;;;;;5035925;28;19917;-79
2021/03/15 06:50:32;;;;;;;5.68;2.17;;;5.90;99.90;;;;;;5004949;28;20050;-77
2021/03/15 06:52:59;;;;;;;2.60;1.95;;;5.90;99.90;;;;;;5025770;28;20056;-78
2021/03/15 06:55:34;;;;;;;4.55;2.20;;;6.00;99.90;;;;;;5023025;28;20029;-78
2021/03/15 06:58:20;;;;;;;3.88;1.80;;;6.10;99.90;;;;;;5016983;28;20044;-75
2021/03/15 07:00:46;;;;;;;4.13;1.90;;;6.20;99.90;;;;;;5017136;28;20049;-79
2021/03/15 07:03:21;;;;;;;4.78;2.20;;;6.30;99.90;;;;;;5020683;28;20406;-79
2021/03/15 07:05:58;;;;;;;5.45;2.33;;;6.30;99.90;;;;;;5022130;28;20037;-77
2021/03/15 07:08:24;;;;;;;3.75;2.40;;;6.30;99.90;;;;;;5024256;28;20042;-77
2021/03/15 07:10:51;;;;;;;5.15;2.20;;;6.30;99.90;;;;;;5028245;28;20046;-80
2021/03/15 07:13:19;;;;;;;4.75;2.20;;;6.40;99.90;;;;;;5027488;28;20029;-80
2021/03/15 07:15:47;;;;;;;5.28;2.25;;;6.40;99.90;;;;;;5021652;28;20034;-76
2021/03/15 07:18:34;;;;;;;3.72;2.55;;;6.50;99.90;;;;;;5028148;28;20091;-78
2021/03/15 07:21:02;;;;;;;5.43;2.38;;;6.50;99.90;;;;;;5022981;28;20041;-78
2021/03/15 07:23:40;;;;;;;6.10;2.45;;;6.50;99.90;;;;;;5032862;28;22014;-77
2021/03/15 07:26:10;;;;;;;5.55;2.40;;;6.50;99.90;;;;;;5025431;28;20407;-78
2021/03/15 07:28:36;;;;;;;5.65;2.10;;;6.60;99.90;;;;;;5025747;28;20038;-78
2021/03/15 07:31:23;;;;;;;3.70;2.60;;;6.70;99.90;;;;;;5036888;28;20045;-81
2021/03/15 07:34:06;;;;;;;4.03;2.33;;;6.80;99.90;;;;;;5021318;28;20034;-80
2021/03/15 07:36:34;;;;;;;3.33;2.17;;;6.90;99.90;;;;;;5024846;28;20033;-78
2021/03/15 07:39:08;;;;;;;5.22;2.78;;;6.90;99.90;;;;;;5038001;28;20037;-79
2021/03/15 07:41:40;;;;;;;5.80;2.53;;;7.00;99.90;;;;;;5018258;28;20022;-77
2021/03/15 07:44:33;;;;;;;5.47;2.75;;;7.10;99.90;;;;;;5023267;28;20483;-79
2021/03/15 07:47:00;;;;;;;4.93;2.50;;;7.20;99.90;;;;;;5024024;28;20029;-79
2021/03/15 07:49:48;;;;;;;4.43;2.72;;;7.50;99.90;;;;;;5020410;28;20277;-79
2021/03/15 07:52:14;;;;;;;3.45;2.42;;;7.40;99.90;;;;;;5032736;28;20431;-80
2021/03/15 07:54:44;;;;;;;5.43;3.03;;;7.50;99.90;;;;;;5020421;28;20034;-78
2021/03/15 07:57:27;;;;;;;3.97;2.60;;;7.60;99.90;;;;;;5017266;28;20720;-78
2021/03/15 07:59:58;;;;;;;6.93;3.72;;;7.50;99.90;;;;;;5014802;28;20036;-78
2021/03/15 08:02:31;;;;;;;5.95;4.05;;;7.50;99.90;;;;;;5022264;28;20303;-77
2021/03/15 08:04:58;;;;;;;7.53;4.70;;;7.50;99.90;;;;;;5031776;28;20033;-78
2021/03/15 08:07:25;;;;;;;8.07;4.65;;;7.60;99.90;;;;;;5020123;28;20025;-78
2021/03/15 08:10:01;;;;;;;7.93;4.03;;;7.60;99.90;;;;;;5018031;28;20053;-76
2021/03/15 08:12:35;;;;;;;6.03;3.30;;;7.70;99.90;;;;;;5027437;28;20052;-80
2021/03/15 08:15:09;;;;;;;5.28;3.13;;;7.80;99.90;;;;;;5024197;28;20068;-77
2021/03/15 08:17:46;;;;;;;6.53;3.30;;;8.00;99.90;;;;;;5026745;28;20048;-78
2021/03/15 08:20:12;;;;;;;6.85;3.85;;;8.00;99.90;;;;;;5022447;28;20038;-77
2021/03/15 08:22:42;;;;;;;4.38;3.40;;;8.00;99.90;;;;;;5017382;28;20041;-78
2021/03/15 08:25:09;;;;;;;5.35;3.25;;;8.00;99.90;;;;;;5031121;28;20853;-77
2021/03/15 08:27:43;;;;;;;5.40;2.90;;;8.10;99.90;;;;;;5010632;28;20049;-78
2021/03/15 08:30:22;;;;;;;4.97;2.97;;;8.10;99.90;;;;;;5019219;28;20096;-77
2021/03/15 08:32:49;;;;;;;5.93;3.67;;;8.20;99.90;;;;;;5018164;28;20041;-77
2021/03/15 08:35:16;;;;;;;4.60;2.70;;;8.30;99.90;;;;;;5013105;28;20030;-77
2021/03/15 08:37:56;;;;;;;6.22;3.10;;;8.30;99.90;;;;;;5016171;28;20128;-78
2021/03/15 08:40:55;;;;;;;6.13;3.70;;;8.40;99.90;;;;;;5021101;28;20039;-79
2021/03/15 08:43:25;;;;;;;4.38;2.80;;;8.30;99.90;;;;;;5013511;28;20032;-78
2021/03/15 08:46:07;;;;;;;3.93;2.53;;;8.00;99.90;;;;;;5027184;28;20466;-78
2021/03/15 08:48:33;;;;;;;4.00;2.30;;;8.30;99.90;;;;;;5012493;28;20292;-76
2021/03/15 08:51:00;;;;;;;5.15;2.40;;;8.30;99.90;;;;;;5018779;28;20064;-78
2021/03/15 08:53:42;;;;;;;3.92;2.38;;;8.30;99.90;;;;;;5013917;28;20679;-78
2021/03/15 08:56:13;;;;;;;4.88;3.00;;;8.30;99.90;;;;;;5027490;28;20030;-78
2021/03/15 08:58:41;;;;;;;4.43;2.72;;;8.30;99.90;;;;;;5028388;28;20109;-77
2021/03/15 09:01:08;;;;;;;4.80;2.40;;;10.20;99.90;;;;;;5018678;28;20052;-76
2021/03/15 09:03:47;;;;;;;4.60;2.58;;;8.30;99.90;;;;;;5016729;28;20040;-78
2021/03/15 09:06:13;;;;;;;3.33;2.25;;;8.40;99.90;;;;;;5015855;28;20032;-77
2021/03/15 09:08:58;;;;;;;4.25;2.30;;;8.40;99.90;;;;;;5018615;28;20132;-77
2021/03/15 09:11:36;;;;;;;3.35;2.00;;;8.40;99.90;;;;;;5019226;28;20116;-81
2021/03/15 09:14:14;;;;;;;2.80;1.50;;;8.40;99.90;;;;;;5018891;28;20099;-80
2021/03/15 09:16:54;;;;;;;3.15;1.40;;;8.50;99.90;;;;;;5029540;28;20037;-78
2021/03/15 09:19:38;;;;;;;3.20;1.95;;;8.40;99.90;;;;;;5014827;28;20056;-78
2021/03/15 09:22:04;;;;;;;4.68;1.70;;;8.50;99.90;;;;;;5032756;28;20046;-80
2021/03/15 09:24:32;;;;;;;3.08;1.65;;;8.80;99.90;;;;;;5024410;28;20056;-81
2021/03/15 09:26:59;;;;;;;3.88;1.80;;;8.90;99.90;;;;;;5020773;28;20084;-77
2021/03/15 09:29:25;;;;;;;2.22;1.55;;;9.30;99.90;;;;;;5022323;28;20037;-78
2021/03/15 09:32:05;;;;;;;4.43;1.92;;;9.30;99.90;;;;;;5019893;28;20095;-79
2021/03/15 09:34:32;;;;;;;3.28;1.77;;;9.50;99.90;;;;;;5014022;28;20029;-77
2021/03/15 09:37:00;;;;;;;2.80;1.52;;;9.50;99.90;;;;;;5019398;28;20038;-77
2021/03/15 09:39:29;;;;;;;3.60;1.70;;;9.60;99.90;;;;;;5015887;28;20095;-82
2021/03/15 09:41:56;;;;;;;2.88;1.65;;;9.90;97.90;;;;;;5015866;28;20053;-80
2021/03/15 09:44:23;;;;;;;3.67;2.00;;;9.90;98.40;;;;;;5027325;28;20029;-80
2021/03/15 09:46:50;;;;;;;4.18;1.40;;;9.80;98.80;;;;;;5017705;28;20045;-81
2021/03/15 09:49:41;;;;;;;5.35;2.58;;;9.70;99.00;;;;;;5016588;28;20466;-77
2021/03/15 09:52:10;;;;;;;;;;;9.50;99.00;;;;;;5017943;28;20029;-78
2021/03/15 09:54:56;;;;;;;2.88;1.40;;;9.30;98.90;;;;;;5019099;28;20076;-76
2021/03/15 09:57:23;;;;;;;2.10;1.40;;;9.40;98.60;;;;;;5018674;28;20033;-80
2021/03/15 09:59:50;;;;;;;1.95;1.52;;;9.70;97.70;;;;;;5021923;28;20411;-76
2021/03/15 10:02:27;;;;;;;3.17;1.73;;;9.60;97.00;;;;;;5015334;28;20411;-77
2021/03/15 10:04:52;;;;;;;1.67;1.13;;;9.60;98.00;;;;;;5018011;28;20042;-77
2021/03/15 10:07:18;;;;;;;3.78;1.60;;;;;;;;;;5017890;28;20146;-78
2021/03/15 10:09:44;;;;;;;2.65;1.50;;;9.60;97.10;;;;;;5013711;28;20145;-76
2021/03/15 10:12:21;;;;;;;3.03;1.65;;;9.50;97.60;;;;;;5015476;28;20683;-79
2021/03/15 10:14:57;;;;;;;2.72;1.90;;;9.40;97.50;;;;;;5029405;28;20037;-78
2021/03/15 10:17:23;;;;;;;2.25;1.48;;;11.70;97.10;;;;;;5012687;28;20036;-78
2021/03/15 10:19:48;;;;;;;3.40;1.50;;;9.50;96.70;;;;;;5009737;28;20037;-79
2021/03/15 10:22:17;;;;;;;2.33;1.40;;;9.50;96.30;;;;;;5028994;28;20055;-77
2021/03/15 10:24:49;;;;;;;3.78;1.50;;;9.50;96.30;;;;;;5016742;28;20514;-77
2021/03/15 10:27:17;;;;;;;2.85;1.48;;;9.50;96.90;;;;;;5017176;28;20616;-79
2021/03/15 10:30:08;;;;;;;2.38;1.30;;;10.30;96.70;;;;;;5013327;28;20053;-77
2021/03/15 10:32:33;;;;;;;2.42;1.42;;;9.80;93.30;;;;;;5019951;28;20044;-80
2021/03/15 10:35:06;;;;;;;2.85;1.27;;;9.90;92.40;;;;;;5018259;28;20080;-77
2021/03/15 10:37:35;;;;;;;1.92;1.13;;;10.10;91.50;;;;;;5015283;28;20037;-79
2021/03/15 10:40:01;;;;;;;3.20;1.10;;;10.10;91.90;;;;;;5013361;28;20053;-77
2021/03/15 10:42:28;;;;;;;2.30;1.20;;;10.20;90.50;;;;;;5011427;28;20021;-77
2021/03/15 10:44:56;;;;;;;2.33;1.38;;;10.40;89.90;;;;;;5012669;28;20025;-77
2021/03/15 10:47:29;;;;;;;2.95;1.50;;;10.40;90.60;;;;;;5015485;28;20041;-79
2021/03/15 10:49:55;;;;;;;2.15;1.35;;;10.80;86.10;;;;;;5009130;28;20040;-78
2021/03/15 10:52:28;;;;;;;2.88;1.33;;;10.90;86.10;;;;;;5015720;28;20029;-78
2021/03/15 10:54:54;;;;;;;2.58;1.10;;;10.90;83.50;;;;;;5021120;28;20026;-78
2021/03/15 10:57:22;;;;;;;2.95;1.48;;;14.30;86.80;;;;;;5000347;28;20060;-78
2021/03/15 10:59:49;;;;;;;2.08;1.13;;;10.70;87.40;;;;;;5016873;28;20105;-79
2021/03/15 11:02:20;;;;;;;2.35;1.33;;;10.70;88.30;;;;;;5011834;28;20029;-78
2021/03/15 11:04:57;;;;;;;3.47;0.98;;;10.60;89.30;;;;;;5025042;28;20052;-76
2021/03/15 11:07:29;;;;;;;1.63;0.93;;;10.20;91.30;;;;;;5014634;28;20026;-77
2021/03/15 11:09:58;;;;;;;2.80;0.90;;;10.10;93.30;;;;;;5012465;28;20130;-77
2021/03/15 11:12:35;;;;;;;3.28;1.10;;;11.60;95.70;;;;;;5030957;28;20127;-75
2021/03/15 11:15:17;;;;;;;2.25;1.10;;;8.30;96.90;;;;;;5017041;28;20499;-77
2021/03/15 11:17:58;;;;;;;3.00;1.15;;;8.30;98.90;;;;;;5019189;28;20037;-77
2021/03/15 11:21:00;;;;;;;2.22;1.00;;;8.30;99.40;;;;;;5016869;28;20034;-80
2021/03/15 11:23:29;;;;;;;2.45;1.10;;;8.10;99.90;;;;;;5025397;28;20026;-76
2021/03/15 11:26:04;;;;;;;2.15;1.00;;;8.20;99.90;;;;;;5030261;28;20038;-79
2021/03/15 11:28:32;;;;;;;1.35;0.90;;;8.30;99.90;;;;;;5017270;28;20036;-77
2021/03/15 11:30:59;;;;;;;1.98;1.23;;;9.50;99.90;;;;;;5022309;28;20155;-78
2021/03/15 11:33:25;;;;;;;2.10;1.00;;;8.70;99.80;;;;;;5020705;28;20061;-78
2021/03/15 11:36:18;;;;;;;2.10;1.02;;;8.70;99.90;;;;;;5015041;28;20491;-78
2021/03/15 11:38:59;;;;;;;2.45;1.20;;;9.10;98.60;;;;;;5020084;28;20061;-76
2021/03/15 11:41:29;;;;;;;2.13;1.00;;;9.40;98.70;;;;;;5031214;28;20402;-78
2021/03/15 11:43:55;;;;;;;1.33;1.00;;;9.80;98.50;;;;;;5011970;28;22440;-79
2021/03/15 11:46:21;;;;;;;1.42;0.90;;;9.80;98.50;;;;;;5016552;28;20037;-79
2021/03/15 11:48:47;;;;;;;3.28;1.30;;;10.00;94.90;;;;;;5012256;28;20061;-77
2021/03/15 11:51:16;;;;;;;1.85;0.90;;;10.20;94.40;;;;;;5025495;28;20141;-77
2021/03/15 11:53:43;;;;;;;2.03;1.00;;;10.40;94.20;;;;;;5031557;28;20045;-78
2021/03/15 11:56:09;;;;;;;2.08;1.08;;;10.50;94.10;;;;;;5027939;28;20093;-77
2021/03/15 11:58:35;;;;;;;8.77;1.30;;;10.70;91.10;;;;;;5024467;28;20061;-78
2021/03/15 12:01:03;;;;;;;2.15;1.25;;;10.80;85.20;;;;;;5028193;28;20564;-77
2021/03/15 12:03:29;;;;;;;1.95;0.95;;;10.90;80.80;;;;;;5021558;28;20124;-78
2021/03/15 12:05:55;;;;;;;2.83;1.50;;;11.00;81.20;;;;;;5016975;28;20196;-78
2021/03/15 12:08:21;;;;;;;1.30;0.90;;;10.90;75.10;;;;;;5024824;28;20045;-78
2021/03/15 12:10:46;;;;;;;1.42;0.85;;;10.80;75.90;;;;;;5021191;28;20055;-78
2021/03/15 12:13:12;;;;;;;2.15;1.10;;;11.00;75.30;;;;;;5023661;28;20128;-78
2021/03/15 12:15:38;;;;;;;2.97;1.30;;;10.80;76.90;;;;;;5021546;28;20107;-77
2021/03/15 12:18:05;;;;;;;2.22;1.00;;;10.90;74.00;;;;;;5023675;28;20049;-77
2021/03/15 12:20:31;;;;;;;3.05;0.90;;;10.60;76.90;;;;;;5023862;28;20119;-79
2021/03/15 12:22:57;;;;;;;2.00;0.90;;;10.60;77.40;;;;;;5026686;28;20438;-79
2021/03/15 12:25:22;;;;;;;2.25;1.27;;;10.60;85.20;;;;;;5020739;28;20093;-79
2021/03/15 12:27:49;;;;;;;2.05;1.10;;;9.70;92.40;;;;;;5031743;28;20053;-80
2021/03/15 12:30:15;;;;;;;2.83;1.10;;;9.70;93.50;;;;;;5017549;28;20038;-77
2021/03/15 12:32:41;;;;;;;3.85;1.20;;;9.40;96.00;;;;;;5012505;28;20030;-75
2021/03/15 12:35:07;;;;;;;2.40;1.23;;;8.90;96.60;;;;;;5011400;28;20063;-78
2021/03/15 12:37:34;;;;;;;3.42;1.50;;;8.50;99.90;;;;;;5020630;28;20489;-78
2021/03/15 12:40:00;;;;;;;2.67;1.10;;;8.40;99.90;;;;;;5014925;28;20099;-78
2021/03/15 12:42:25;;;;;;;2.58;1.33;;;9.50;99.90;;;;;;5019557;28;20582;-76
2021/03/15 12:44:51;;;;;;;2.03;1.20;;;10.70;99.30;;;;;;5018997;28;20062;-77
2021/03/15 12:47:17;;;;;;;1.30;1.00;;;8.80;99.60;;;;;;5023479;28;20486;-77
2021/03/15 12:49:42;;;;;;;3.33;1.50;;;8.80;99.70;;;;;;5019891;28;20371;-77
2021/03/15 12:52:08;;;;;;;1.95;1.10;;;9.00;99.10;;;;;;5018242;28;20041;-80
2021/03/15 12:54:34;;;;;;;4.07;1.35;;;9.20;98.70;;;;;;5016970;28;20415;-77
2021/03/15 12:57:00;;;;;;;3.50;1.67;;;8.50;98.30;;;;;;5015028;28;20465;-79
2021/03/15 12:59:26;;;;;;;3.67;1.30;;;9.80;97.50;;;;;;5022040;28;20740;-80
2021/03/15 13:01:51;;;;;;;3.58;1.27;;;11.00;97.00;;;;;;5023611;28;20037;-78
2021/03/15 13:04:17;;;;;;;2.45;1.27;;;10.20;94.40;;;;;;4999565;28;20060;-79
2021/03/15 13:06:43;;;;;;;3.53;1.40;;;11.10;94.80;;;;;;5011639;28;20517;-78
2021/03/15 13:09:09;;;;;;;3.55;1.40;;;10.30;94.40;;;;;;4995489;28;20095;-76
2021/03/15 13:11:35;;;;;;;3.13;1.33;;;10.40;94.80;;;;;;5010813;28;20526;-79
2021/03/15 13:14:01;;;;;;;3.25;1.50;;;10.50;94.20;;;;;;5021239;28;20042;-78
2021/03/15 13:16:27;;;;;;;2.85;1.38;;;10.70;92.90;;;;;;5012568;28;20048;-79